sensor_id;sensor_type;location;lat;lon;timestamp;pressure;altitude;pressure_sealevel;temperature;humidity
30935;BME280;51033;42.648;23.292;2023-05-29T00:01:24;93660.31;;;15.09;59.88
30935;BME280;51033;42.648;23.292;2023-05-29T00:03:51;93665.41;;;15.14;59.97
30935;BME280;51033;42.648;23.292;2023-05-29T00:06:18;93655.22;;;15.04;59.94
30935;BME280;51033;42.648;23.292;2023-05-29T00:08:44;93655.38;;;15.11;59.75
30935;BME280;51033;42.648;23.292;2023-05-29T00:11:10;93648.22;;;14.99;59.99
30935;BME280;51033;42.648;23.292;2023-05-29T00:13:35;93652.34;;;14.97;60.04
30935;BME280;51033;42.648;23.292;2023-05-29T00:16:00;93675.28;;;15.10;60.13
30935;BME280;51033;42.648;23.292;2023-05-29T00:18:26;93668.78;;;15.11;60.41
30935;BME280;51033;42.648;23.292;2023-05-29T00:20:52;93657.19;;;15.07;60.29
30935;BME280;51033;42.648;23.292;2023-05-29T00:23:18;93663.78;;;15.10;60.16
30935;BME280;51033;42.648;23.292;2023-05-29T00:25:44;93681.66;;;15.06;60.73
30935;BME280;51033;42.648;23.292;2023-05-29T00:28:10;93670.41;;;15.00;61.26
30935;BME280;51033;42.648;23.292;2023-05-29T00:30:37;93654.06;;;14.89;61.31
30935;BME280;51033;42.648;23.292;2023-05-29T00:33:02;93668.84;;;14.99;61.16
30935;BME280;51033;42.648;23.292;2023-05-29T00:35:28;93678.63;;;15.07;61.40
30935;BME280;51033;42.648;23.292;2023-05-29T00:37:53;93657.03;;;15.00;61.29
30935;BME280;51033;42.648;23.292;2023-05-29T00:40:18;93658.31;;;15.06;60.96
30935;BME280;51033;42.648;23.292;2023-05-29T00:42:44;93673.19;;;15.19;61.00
30935;BME280;51033;42.648;23.292;2023-05-29T00:45:10;93647.69;;;14.94;60.89
30935;BME280;51033;42.648;23.292;2023-05-29T00:47:36;93677.69;;;15.15;60.88
30935;BME280;51033;42.648;23.292;2023-05-29T00:50:02;93677.84;;;15.07;61.15
30935;BME280;51033;42.648;23.292;2023-05-29T00:52:29;93666.59;;;15.01;61.48
30935;BME280;51033;42.648;23.292;2023-05-29T00:54:54;93657.91;;;15.04;61.50
30935;BME280;51033;42.648;23.292;2023-05-29T00:57:20;93659.88;;;15.07;61.04
30935;BME280;51033;42.648;23.292;2023-05-29T00:59:48;93657.44;;;15.02;60.98
30935;BME280;51033;42.648;23.292;2023-05-29T01:02:15;93649.91;;;14.92;61.05
30935;BME280;51033;42.648;23.292;2023-05-29T01:04:42;93659.59;;;14.96;60.88
30935;BME280;51033;42.648;23.292;2023-05-29T01:07:10;93643.38;;;14.89;61.06
30935;BME280;51033;42.648;23.292;2023-05-29T01:09:35;93651.16;;;14.94;60.84
30935;BME280;51033;42.648;23.292;2023-05-29T01:17:17;93654.84;;;14.90;61.10
30935;BME280;51033;42.648;23.292;2023-05-29T01:22:40;93662.09;;;14.89;61.14
30935;BME280;51033;42.648;23.292;2023-05-29T01:25:19;93652.22;;;14.78;61.01
30935;BME280;51033;42.648;23.292;2023-05-29T01:27:47;93649.91;;;14.76;60.94
30935;BME280;51033;42.648;23.292;2023-05-29T01:30:14;93660.25;;;14.78;61.28
30935;BME280;51033;42.648;23.292;2023-05-29T01:32:41;93655.34;;;14.80;61.17
30935;BME280;51033;42.648;23.292;2023-05-29T01:35:07;93651.81;;;14.76;61.23
30935;BME280;51033;42.648;23.292;2023-05-29T01:37:34;93659.84;;;14.91;61.32
30935;BME280;51033;42.648;23.292;2023-05-29T01:39:59;93650.00;;;14.80;61.49
30935;BME280;51033;42.648;23.292;2023-05-29T01:42:29;93658.38;;;14.78;62.05
30935;BME280;51033;42.648;23.292;2023-05-29T01:44:56;93656.91;;;14.81;61.94
30935;BME280;51033;42.648;23.292;2023-05-29T01:47:22;93666.69;;;14.89;62.11
30935;BME280;51033;42.648;23.292;2023-05-29T01:49:49;93669.34;;;14.89;62.30
30935;BME280;51033;42.648;23.292;2023-05-29T01:52:16;93666.44;;;14.94;62.70
30935;BME280;51033;42.648;23.292;2023-05-29T01:54:42;93663.66;;;14.90;62.87
30935;BME280;51033;42.648;23.292;2023-05-29T01:57:07;93660.22;;;14.90;62.80
30935;BME280;51033;42.648;23.292;2023-05-29T01:59:33;93664.19;;;14.96;62.93
30935;BME280;51033;42.648;23.292;2023-05-29T02:02:09;93653.22;;;14.85;62.95
30935;BME280;51033;42.648;23.292;2023-05-29T02:04:35;93657.34;;;14.83;63.17
30935;BME280;51033;42.648;23.292;2023-05-29T02:07:00;93651.56;;;14.81;63.26
30935;BME280;51033;42.648;23.292;2023-05-29T02:09:26;93660.00;;;14.83;63.17
30935;BME280;51033;42.648;23.292;2023-05-29T02:11:52;93626.75;;;14.68;63.02
30935;BME280;51033;42.648;23.292;2023-05-29T02:14:17;93657.09;;;14.88;62.87
30935;BME280;51033;42.648;23.292;2023-05-29T02:16:43;93645.84;;;14.82;62.60
30935;BME280;51033;42.648;23.292;2023-05-29T02:19:09;93653.09;;;14.82;61.85
30935;BME280;51033;42.648;23.292;2023-05-29T02:21:38;93642.03;;;14.68;62.37
30935;BME280;51033;42.648;23.292;2023-05-29T02:24:04;93653.72;;;14.75;62.36
30935;BME280;51033;42.648;23.292;2023-05-29T02:26:30;93648.88;;;14.81;63.23
30935;BME280;51033;42.648;23.292;2023-05-29T02:28:56;93632.09;;;14.68;62.97
30935;BME280;51033;42.648;23.292;2023-05-29T02:31:22;93648.78;;;14.77;63.20
30935;BME280;51033;42.648;23.292;2023-05-29T02:33:47;93649.13;;;14.76;63.44
30935;BME280;51033;42.648;23.292;2023-05-29T02:36:13;93655.34;;;14.80;63.38
30935;BME280;51033;42.648;23.292;2023-05-29T02:38:39;93640.03;;;14.65;63.66
30935;BME280;51033;42.648;23.292;2023-05-29T02:41:04;93653.78;;;14.79;63.05
30935;BME280;51033;42.648;23.292;2023-05-29T02:43:31;93647.38;;;14.68;63.34
30935;BME280;51033;42.648;23.292;2023-05-29T02:45:56;93638.72;;;14.58;63.21
30935;BME280;51033;42.648;23.292;2023-05-29T02:48:21;93639.16;;;14.60;63.24
30935;BME280;51033;42.648;23.292;2023-05-29T02:50:47;93647.03;;;14.69;63.27
30935;BME280;51033;42.648;23.292;2023-05-29T02:53:12;93631.81;;;14.57;63.47
30935;BME280;51033;42.648;23.292;2023-05-29T02:55:38;93644.06;;;14.58;63.21
30935;BME280;51033;42.648;23.292;2023-05-29T02:58:03;93639.41;;;14.55;63.33
30935;BME280;51033;42.648;23.292;2023-05-29T03:00:29;93647.88;;;14.57;63.23
30935;BME280;51033;42.648;23.292;2023-05-29T03:02:54;93647.78;;;14.54;63.45
30935;BME280;51033;42.648;23.292;2023-05-29T03:05:20;93644.53;;;14.48;63.59
30935;BME280;51033;42.648;23.292;2023-05-29T03:07:45;93662.66;;;14.67;63.46
30935;BME280;51033;42.648;23.292;2023-05-29T03:10:11;93661.00;;;14.63;63.42
30935;BME280;51033;42.648;23.292;2023-05-29T03:12:37;93626.03;;;14.43;63.96
30935;BME280;51033;42.648;23.292;2023-05-29T03:15:04;93658.53;;;14.70;63.78
30935;BME280;51033;42.648;23.292;2023-05-29T03:17:30;93646.50;;;14.64;63.82
30935;BME280;51033;42.648;23.292;2023-05-29T03:19:55;93658.63;;;14.73;63.90
30935;BME280;51033;42.648;23.292;2023-05-29T03:22:20;93666.47;;;14.82;63.95
30935;BME280;51033;42.648;23.292;2023-05-29T03:24:46;93649.81;;;14.73;64.04
30935;BME280;51033;42.648;23.292;2023-05-29T03:27:11;93642.88;;;14.72;64.34
30935;BME280;51033;42.648;23.292;2023-05-29T03:29:37;93663.81;;;14.82;64.29
30935;BME280;51033;42.648;23.292;2023-05-29T03:32:02;93665.63;;;14.78;64.72
30935;BME280;51033;42.648;23.292;2023-05-29T03:34:27;93662.94;;;14.78;64.70
30935;BME280;51033;42.648;23.292;2023-05-29T03:36:53;93663.81;;;14.82;64.93
30935;BME280;51033;42.648;23.292;2023-05-29T03:39:19;93673.16;;;14.88;65.15
30935;BME280;51033;42.648;23.292;2023-05-29T03:41:45;93670.06;;;14.86;65.03
30935;BME280;51033;42.648;23.292;2023-05-29T03:44:11;93681.13;;;15.00;64.89
30935;BME280;51033;42.648;23.292;2023-05-29T03:46:36;93678.00;;;14.98;65.02
30935;BME280;51033;42.648;23.292;2023-05-29T03:49:01;93670.69;;;14.95;65.64
30935;BME280;51033;42.648;23.292;2023-05-29T03:51:27;93682.41;;;15.06;66.02
30935;BME280;51033;42.648;23.292;2023-05-29T03:53:52;93683.38;;;15.14;65.95
30935;BME280;51033;42.648;23.292;2023-05-29T03:56:17;93690.59;;;15.25;65.71
30935;BME280;51033;42.648;23.292;2023-05-29T03:58:43;93685.31;;;15.29;65.66
30935;BME280;51033;42.648;23.292;2023-05-29T04:01:08;93705.88;;;15.40;65.59
30935;BME280;51033;42.648;23.292;2023-05-29T04:03:34;93703.41;;;15.48;65.11
30935;BME280;51033;42.648;23.292;2023-05-29T04:06:00;93694.47;;;15.43;65.20
30935;BME280;51033;42.648;23.292;2023-05-29T04:08:25;93689.31;;;15.51;65.15
30935;BME280;51033;42.648;23.292;2023-05-29T04:10:51;93707.91;;;15.59;64.74
30935;BME280;51033;42.648;23.292;2023-05-29T04:13:19;93693.97;;;15.54;64.50
30935;BME280;51033;42.648;23.292;2023-05-29T04:15:45;93711.19;;;15.68;64.04
30935;BME280;51033;42.648;23.292;2023-05-29T04:18:10;93705.97;;;15.75;63.96
30935;BME280;51033;42.648;23.292;2023-05-29T04:20:35;93701.84;;;15.78;63.44
30935;BME280;51033;42.648;23.292;2023-05-29T04:23:01;93688.31;;;15.74;63.51
30935;BME280;51033;42.648;23.292;2023-05-29T04:25:26;93696.03;;;15.76;63.49
30935;BME280;51033;42.648;23.292;2023-05-29T04:27:51;93696.56;;;15.66;63.70
30935;BME280;51033;42.648;23.292;2023-05-29T04:30:17;93692.06;;;15.38;64.77
30935;BME280;51033;42.648;23.292;2023-05-29T04:32:43;93705.56;;;15.58;64.64
30935;BME280;51033;42.648;23.292;2023-05-29T04:35:08;93704.72;;;15.54;64.88
30935;BME280;51033;42.648;23.292;2023-05-29T04:37:35;93709.47;;;15.44;65.52
30935;BME280;51033;42.648;23.292;2023-05-29T04:40:07;93713.94;;;14.97;67.30
30935;BME280;51033;42.648;23.292;2023-05-29T04:42:37;93701.97;;;15.22;66.86
30935;BME280;51033;42.648;23.292;2023-05-29T04:45:03;93717.38;;;15.25;66.64
30935;BME280;51033;42.648;23.292;2023-05-29T04:47:31;93722.44;;;15.30;66.51
30935;BME280;51033;42.648;23.292;2023-05-29T04:50:01;93722.38;;;15.27;66.67
30935;BME280;51033;42.648;23.292;2023-05-29T04:52:27;93717.38;;;15.41;66.46
30935;BME280;51033;42.648;23.292;2023-05-29T04:54:54;93713.00;;;15.49;66.17
30935;BME280;51033;42.648;23.292;2023-05-29T04:57:20;93720.69;;;15.50;66.12
30935;BME280;51033;42.648;23.292;2023-05-29T04:59:45;93710.94;;;15.58;65.91
30935;BME280;51033;42.648;23.292;2023-05-29T05:02:10;93724.06;;;15.63;66.00
30935;BME280;51033;42.648;23.292;2023-05-29T05:04:36;93698.06;;;15.04;66.47
30935;BME280;51033;42.648;23.292;2023-05-29T05:07:02;93735.22;;;15.21;67.02
30935;BME280;51033;42.648;23.292;2023-05-29T05:09:28;93739.56;;;15.26;66.48
30935;BME280;51033;42.648;23.292;2023-05-29T05:11:54;93745.69;;;15.11;68.77
30935;BME280;51033;42.648;23.292;2023-05-29T05:14:20;93734.38;;;15.17;69.45
30935;BME280;51033;42.648;23.292;2023-05-29T05:16:45;93748.44;;;15.58;66.72
30935;BME280;51033;42.648;23.292;2023-05-29T05:19:10;93732.97;;;15.51;67.31
30935;BME280;51033;42.648;23.292;2023-05-29T05:21:36;93747.41;;;15.78;66.47
30935;BME280;51033;42.648;23.292;2023-05-29T05:24:01;93756.56;;;16.08;64.76
30935;BME280;51033;42.648;23.292;2023-05-29T05:26:27;93639.41;;;15.15;66.99
30935;BME280;51033;42.648;23.292;2023-05-29T05:28:52;93744.03;;;15.97;67.27
30935;BME280;51033;42.648;23.292;2023-05-29T05:31:18;93754.63;;;16.24;64.61
30935;BME280;51033;42.648;23.292;2023-05-29T05:33:43;93749.69;;;16.26;64.47
30935;BME280;51033;42.648;23.292;2023-05-29T05:36:09;93748.94;;;15.95;63.82
30935;BME280;51033;42.648;23.292;2023-05-29T05:38:35;93748.09;;;15.75;65.25
30935;BME280;51033;42.648;23.292;2023-05-29T05:41:01;93736.16;;;15.88;64.86
30935;BME280;51033;42.648;23.292;2023-05-29T05:43:26;93727.94;;;15.81;65.31
30935;BME280;51033;42.648;23.292;2023-05-29T05:45:52;93756.66;;;15.80;64.75
30935;BME280;51033;42.648;23.292;2023-05-29T05:48:17;93757.44;;;15.50;66.56
30935;BME280;51033;42.648;23.292;2023-05-29T05:50:43;93751.56;;;15.75;66.26
30935;BME280;51033;42.648;23.292;2023-05-29T05:53:08;93748.44;;;15.58;67.22
30935;BME280;51033;42.648;23.292;2023-05-29T05:55:33;93757.88;;;15.83;65.05
30935;BME280;51033;42.648;23.292;2023-05-29T05:57:59;93764.63;;;15.77;66.27
30935;BME280;51033;42.648;23.292;2023-05-29T06:00:24;93754.00;;;15.49;66.96
30935;BME280;51033;42.648;23.292;2023-05-29T06:02:51;93747.41;;;15.46;66.02
30935;BME280;51033;42.648;23.292;2023-05-29T06:05:16;93754.50;;;15.86;65.50
30935;BME280;51033;42.648;23.292;2023-05-29T06:07:42;93748.00;;;16.03;65.97
30935;BME280;51033;42.648;23.292;2023-05-29T06:10:07;93749.19;;;16.05;65.78
30935;BME280;51033;42.648;23.292;2023-05-29T06:12:33;93758.59;;;15.64;66.29
30935;BME280;51033;42.648;23.292;2023-05-29T06:14:59;93755.34;;;15.90;66.03
30935;BME280;51033;42.648;23.292;2023-05-29T06:17:25;93732.19;;;15.82;64.63
30935;BME280;51033;42.648;23.292;2023-05-29T06:19:50;93753.91;;;16.43;64.03
30935;BME280;51033;42.648;23.292;2023-05-29T06:22:16;93753.25;;;16.30;62.12
30935;BME280;51033;42.648;23.292;2023-05-29T06:24:41;93768.53;;;16.46;62.30
30935;BME280;51033;42.648;23.292;2023-05-29T06:27:07;93768.84;;;16.60;61.37
30935;BME280;51033;42.648;23.292;2023-05-29T06:29:32;93766.75;;;16.88;61.92
30935;BME280;51033;42.648;23.292;2023-05-29T06:31:58;93774.66;;;17.00;61.84
30935;BME280;51033;42.648;23.292;2023-05-29T06:34:23;93770.38;;;16.42;62.25
30935;BME280;51033;42.648;23.292;2023-05-29T06:36:49;93767.28;;;16.08;63.42
30935;BME280;51033;42.648;23.292;2023-05-29T06:39:14;93754.44;;;16.33;63.15
30935;BME280;51033;42.648;23.292;2023-05-29T06:41:40;93770.38;;;16.42;62.07
30935;BME280;51033;42.648;23.292;2023-05-29T06:44:06;93760.78;;;16.60;61.63
30935;BME280;51033;42.648;23.292;2023-05-29T06:46:32;93765.34;;;16.94;60.16
30935;BME280;51033;42.648;23.292;2023-05-29T06:48:57;93766.00;;;16.53;62.36
30935;BME280;51033;42.648;23.292;2023-05-29T06:51:23;93765.88;;;16.14;63.94
30935;BME280;51033;42.648;23.292;2023-05-29T06:53:48;93768.66;;;16.33;63.52
30935;BME280;51033;42.648;23.292;2023-05-29T06:56:13;93756.88;;;16.22;63.25
30935;BME280;51033;42.648;23.292;2023-05-29T06:58:39;93760.75;;;16.25;63.56
30935;BME280;51033;42.648;23.292;2023-05-29T07:01:05;93764.25;;;16.10;62.95
30935;BME280;51033;42.648;23.292;2023-05-29T07:03:30;93772.75;;;16.12;62.53
30935;BME280;51033;42.648;23.292;2023-05-29T07:05:56;93766.00;;;16.53;60.69
30935;BME280;51033;42.648;23.292;2023-05-29T07:08:22;93778.97;;;16.86;59.81
30935;BME280;51033;42.648;23.292;2023-05-29T07:10:48;93770.88;;;16.47;60.93
30935;BME280;51033;42.648;23.292;2023-05-29T07:13:15;93776.06;;;16.75;60.37
30935;BME280;51033;42.648;23.292;2023-05-29T07:15:42;93773.03;;;16.96;59.62
30935;BME280;51033;42.648;23.292;2023-05-29T07:18:07;93777.00;;;17.21;58.73
30935;BME280;51033;42.648;23.292;2023-05-29T07:20:33;93781.72;;;17.08;59.10
30935;BME280;51033;42.648;23.292;2023-05-29T07:22:58;93783.41;;;16.97;60.44
30935;BME280;51033;42.648;23.292;2023-05-29T07:25:23;93781.38;;;16.91;59.71
30935;BME280;51033;42.648;23.292;2023-05-29T07:27:49;93765.16;;;16.68;60.18
30935;BME280;51033;42.648;23.292;2023-05-29T07:30:15;93774.91;;;16.38;61.72
30935;BME280;51033;42.648;23.292;2023-05-29T07:32:40;93771.38;;;16.53;61.27
30935;BME280;51033;42.648;23.292;2023-05-29T07:35:06;93761.84;;;17.13;59.12
30935;BME280;51033;42.648;23.292;2023-05-29T07:37:32;93772.69;;;17.16;59.27
30935;BME280;51033;42.648;23.292;2023-05-29T07:39:57;93764.25;;;17.37;57.84
30935;BME280;51033;42.648;23.292;2023-05-29T07:42:23;93764.16;;;17.53;58.05
30935;BME280;51033;42.648;23.292;2023-05-29T07:44:48;93770.41;;;17.38;57.58
30935;BME280;51033;42.648;23.292;2023-05-29T07:47:14;93769.59;;;17.56;58.27
30935;BME280;51033;42.648;23.292;2023-05-29T07:49:40;93773.28;;;17.26;58.76
30935;BME280;51033;42.648;23.292;2023-05-29T07:52:05;93763.94;;;17.20;58.59
30935;BME280;51033;42.648;23.292;2023-05-29T07:54:31;93768.63;;;17.45;58.44
30935;BME280;51033;42.648;23.292;2023-05-29T07:56:58;93761.47;;;17.53;58.19
30935;BME280;51033;42.648;23.292;2023-05-29T07:59:26;93770.47;;;17.41;57.32
30935;BME280;51033;42.648;23.292;2023-05-29T08:01:51;93752.91;;;17.25;57.75
30935;BME280;51033;42.648;23.292;2023-05-29T08:04:17;93757.97;;;17.10;59.26
30935;BME280;51033;42.648;23.292;2023-05-29T08:06:43;93764.22;;;17.14;58.22
30935;BME280;51033;42.648;23.292;2023-05-29T08:09:09;93765.38;;;17.36;59.43
30935;BME280;51033;42.648;23.292;2023-05-29T08:11:36;93758.69;;;17.27;58.83
30935;BME280;51033;42.648;23.292;2023-05-29T08:14:02;93770.94;;;17.24;57.73
30935;BME280;51033;42.648;23.292;2023-05-29T08:16:27;93768.81;;;17.56;57.41
30935;BME280;51033;42.648;23.292;2023-05-29T08:18:53;93766.19;;;17.82;55.94
30935;BME280;51033;42.648;23.292;2023-05-29T08:21:18;93760.34;;;17.99;54.89
30935;BME280;51033;42.648;23.292;2023-05-29T08:23:44;93774.53;;;17.32;55.89
30935;BME280;51033;42.648;23.292;2023-05-29T08:26:09;93772.78;;;17.62;56.69
30935;BME280;51033;42.648;23.292;2023-05-29T08:28:35;93783.81;;;17.57;56.34
30935;BME280;51033;42.648;23.292;2023-05-29T08:31:00;93779.13;;;17.31;57.63
30935;BME280;51033;42.648;23.292;2023-05-29T08:33:26;93770.78;;;17.17;58.54
30935;BME280;51033;42.648;23.292;2023-05-29T08:35:51;93773.16;;;17.41;57.11
30935;BME280;51033;42.648;23.292;2023-05-29T08:38:17;93783.31;;;17.29;57.22
30935;BME280;51033;42.648;23.292;2023-05-29T08:40:42;93783.00;;;17.34;58.07
30935;BME280;51033;42.648;23.292;2023-05-29T08:43:11;93782.22;;;17.75;57.66
30935;BME280;51033;42.648;23.292;2023-05-29T08:45:44;93754.97;;;17.54;54.88
30935;BME280;51033;42.648;23.292;2023-05-29T08:48:11;93766.94;;;17.79;55.08
30935;BME280;51033;42.648;23.292;2023-05-29T08:50:44;93755.69;;;17.96;54.88
30935;BME280;51033;42.648;23.292;2023-05-29T08:53:15;93760.63;;;18.17;56.04
30935;BME280;51033;42.648;23.292;2023-05-29T08:55:41;93748.81;;;17.99;55.30
30935;BME280;51033;42.648;23.292;2023-05-29T08:58:07;93754.25;;;18.02;54.77
30935;BME280;51033;42.648;23.292;2023-05-29T09:00:33;93756.25;;;18.32;54.00
30935;BME280;51033;42.648;23.292;2023-05-29T09:02:59;93754.22;;;18.52;52.59
30935;BME280;51033;42.648;23.292;2023-05-29T09:05:25;93739.66;;;18.56;52.84
30935;BME280;51033;42.648;23.292;2023-05-29T09:07:55;93743.63;;;18.66;51.47
30935;BME280;51033;42.648;23.292;2023-05-29T09:10:20;93754.88;;;18.71;51.25
30935;BME280;51033;42.648;23.292;2023-05-29T09:12:47;93720.81;;;18.86;50.95
30935;BME280;51033;42.648;23.292;2023-05-29T09:15:19;93753.44;;;19.11;50.24
30935;BME280;51033;42.648;23.292;2023-05-29T09:17:52;93743.53;;;19.22;49.62
30935;BME280;51033;42.648;23.292;2023-05-29T09:20:18;93741.41;;;19.38;49.72
30935;BME280;51033;42.648;23.292;2023-05-29T09:23:08;93736.66;;;19.28;50.54
30935;BME280;51033;42.648;23.292;2023-05-29T09:25:39;93731.69;;;19.30;51.67
30935;BME280;51033;42.648;23.292;2023-05-29T09:28:07;93730.63;;;19.38;50.90
30935;BME280;51033;42.648;23.292;2023-05-29T09:33:02;93721.56;;;19.20;49.18
30935;BME280;51033;42.648;23.292;2023-05-29T09:38:08;93707.19;;;19.09;48.60
30935;BME280;51033;42.648;23.292;2023-05-29T09:40:36;93706.78;;;19.07;46.75
30935;BME280;51033;42.648;23.292;2023-05-29T09:43:03;93715.59;;;19.00;48.72
30935;BME280;51033;42.648;23.292;2023-05-29T09:45:33;93714.31;;;19.27;49.58
30935;BME280;51033;42.648;23.292;2023-05-29T09:47:58;93688.56;;;19.30;48.52
30935;BME280;51033;42.648;23.292;2023-05-29T09:50:26;93699.16;;;19.49;48.70
30935;BME280;51033;42.648;23.292;2023-05-29T09:52:53;93695.50;;;19.31;47.91
30935;BME280;51033;42.648;23.292;2023-05-29T09:55:23;93689.09;;;19.46;47.18
30935;BME280;51033;42.648;23.292;2023-05-29T09:57:48;93683.59;;;19.36;48.31
30935;BME280;51033;42.648;23.292;2023-05-29T10:00:15;93690.66;;;19.47;47.17
30935;BME280;51033;42.648;23.292;2023-05-29T10:02:42;93687.66;;;19.19;47.84
30935;BME280;51033;42.648;23.292;2023-05-29T10:05:07;93687.69;;;18.26;49.22
30935;BME280;51033;42.648;23.292;2023-05-29T10:07:35;93703.34;;;18.17;50.17
30935;BME280;51033;42.648;23.292;2023-05-29T10:10:04;93700.38;;;18.55;48.58
30935;BME280;51033;42.648;23.292;2023-05-29T10:12:32;93712.25;;;18.77;48.77
30935;BME280;51033;42.648;23.292;2023-05-29T10:14:59;93709.31;;;18.93;48.37
30935;BME280;51033;42.648;23.292;2023-05-29T10:17:32;93707.84;;;18.95;50.31
30935;BME280;51033;42.648;23.292;2023-05-29T10:19:57;93688.75;;;19.11;48.99
30935;BME280;51033;42.648;23.292;2023-05-29T10:22:26;93688.25;;;19.39;49.70
30935;BME280;51033;42.648;23.292;2023-05-29T10:24:53;93673.75;;;19.50;48.73
30935;BME280;51033;42.648;23.292;2023-05-29T10:27:20;93697.81;;;19.73;48.14
30935;BME280;51033;42.648;23.292;2023-05-29T10:29:50;93695.22;;;19.84;47.85
30935;BME280;51033;42.648;23.292;2023-05-29T10:37:39;93690.84;;;19.68;47.39
30935;BME280;51033;42.648;23.292;2023-05-29T10:40:10;93672.78;;;19.76;49.28
30935;BME280;51033;42.648;23.292;2023-05-29T10:42:49;93691.44;;;19.95;48.46
30935;BME280;51033;42.648;23.292;2023-05-29T10:50:36;93682.38;;;20.21;44.75
30935;BME280;51033;42.648;23.292;2023-05-29T10:53:02;93662.16;;;20.01;44.78
30935;BME280;51033;42.648;23.292;2023-05-29T10:55:34;93666.75;;;19.93;45.52
30935;BME280;51033;42.648;23.292;2023-05-29T10:58:07;93668.69;;;19.93;46.68
30935;BME280;51033;42.648;23.292;2023-05-29T11:00:33;93666.75;;;19.93;46.59
30935;BME280;51033;42.648;23.292;2023-05-29T11:03:03;93653.97;;;19.87;47.09
30935;BME280;51033;42.648;23.292;2023-05-29T11:05:29;93666.44;;;20.02;48.18
30935;BME280;51033;42.648;23.292;2023-05-29T11:07:59;93664.34;;;19.81;49.06
30935;BME280;51033;42.648;23.292;2023-05-29T11:13:09;93660.66;;;19.52;53.34
30935;BME280;51033;42.648;23.292;2023-05-29T11:15:36;93664.25;;;19.70;55.14
30935;BME280;51033;42.648;23.292;2023-05-29T11:18:06;93670.75;;;19.62;54.77
30935;BME280;51033;42.648;23.292;2023-05-29T11:20:53;93669.72;;;19.37;57.84
30935;BME280;51033;42.648;23.292;2023-05-29T11:23:22;93664.34;;;19.37;61.14
30935;BME280;51033;42.648;23.292;2023-05-29T11:25:50;93660.78;;;19.26;61.71
30935;BME280;51033;42.648;23.292;2023-05-29T11:28:16;93652.63;;;19.19;65.67
30935;BME280;51033;42.648;23.292;2023-05-29T11:30:46;93652.56;;;19.52;62.76
30935;BME280;51033;42.648;23.292;2023-05-29T11:33:22;93638.88;;;19.31;61.53
30935;BME280;51033;42.648;23.292;2023-05-29T11:36:01;93639.72;;;19.42;61.92
30935;BME280;51033;42.648;23.292;2023-05-29T11:38:27;93633.31;;;19.54;52.26
30935;BME280;51033;42.648;23.292;2023-05-29T11:40:56;93647.00;;;19.79;52.02
30935;BME280;51033;42.648;23.292;2023-05-29T11:43:24;93649.00;;;19.89;53.20
30935;BME280;51033;42.648;23.292;2023-05-29T11:45:49;93653.28;;;19.97;55.06
30935;BME280;51033;42.648;23.292;2023-05-29T11:48:15;93641.63;;;19.86;52.67
30935;BME280;51033;42.648;23.292;2023-05-29T11:50:41;93634.31;;;19.90;52.79
30935;BME280;51033;42.648;23.292;2023-05-29T11:53:07;93640.66;;;20.11;55.88
30935;BME280;51033;42.648;23.292;2023-05-29T11:55:33;93627.56;;;20.13;54.33
30935;BME280;51033;42.648;23.292;2023-05-29T11:58:00;93627.00;;;19.87;49.91
30935;BME280;51033;42.648;23.292;2023-05-29T12:00:30;93632.06;;;19.95;50.45
30935;BME280;51033;42.648;23.292;2023-05-29T12:02:58;93615.34;;;19.75;51.68
30935;BME280;51033;42.648;23.292;2023-05-29T12:05:23;93624.81;;;20.10;54.58
30935;BME280;51033;42.648;23.292;2023-05-29T12:07:53;93636.53;;;20.28;53.30
30935;BME280;51033;42.648;23.292;2023-05-29T12:10:22;93633.41;;;19.24;55.94
30935;BME280;51033;42.648;23.292;2023-05-29T12:12:53;93611.22;;;18.64;60.47
30935;BME280;51033;42.648;23.292;2023-05-29T12:15:19;93654.69;;;18.02;62.78
30935;BME280;51033;42.648;23.292;2023-05-29T12:17:45;93652.47;;;17.85;65.78
30935;BME280;51033;42.648;23.292;2023-05-29T12:20:12;93641.47;;;18.20;64.12
30935;BME280;51033;42.648;23.292;2023-05-29T12:22:40;93640.28;;;17.91;62.54
30935;BME280;51033;42.648;23.292;2023-05-29T12:25:07;93649.47;;;18.43;62.36
30935;BME280;51033;42.648;23.292;2023-05-29T12:27:33;93633.81;;;18.52;61.25
30935;BME280;51033;42.648;23.292;2023-05-29T12:30:03;93638.53;;;18.62;61.81
30935;BME280;51033;42.648;23.292;2023-05-29T12:32:40;93649.84;;;18.71;61.35
30935;BME280;51033;42.648;23.292;2023-05-29T12:35:26;93661.69;;;18.67;60.38
30935;BME280;51033;42.648;23.292;2023-05-29T12:38:04;93663.44;;;18.52;61.70
30935;BME280;51033;42.648;23.292;2023-05-29T12:40:32;93668.59;;;18.68;60.47
30935;BME280;51033;42.648;23.292;2023-05-29T12:43:04;93671.56;;;18.59;59.69
30935;BME280;51033;42.648;23.292;2023-05-29T12:45:32;93671.63;;;18.03;63.33
30935;BME280;51033;42.648;23.292;2023-05-29T12:48:00;93676.84;;;17.47;66.08
30935;BME280;51033;42.648;23.292;2023-05-29T12:50:30;93678.75;;;16.62;68.41
30935;BME280;51033;42.648;23.292;2023-05-29T12:55:34;93662.16;;;17.18;65.73
30935;BME280;51033;42.648;23.292;2023-05-29T12:58:02;93682.31;;;17.08;65.90
30935;BME280;51033;42.648;23.292;2023-05-29T13:00:28;93669.94;;;17.04;66.17
30935;BME280;51033;42.648;23.292;2023-05-29T13:02:54;93678.56;;;17.81;66.31
30935;BME280;51033;42.648;23.292;2023-05-29T13:05:20;93671.19;;;18.01;65.97
30935;BME280;51033;42.648;23.292;2023-05-29T13:07:48;93672.84;;;18.09;62.74
30935;BME280;51033;42.648;23.292;2023-05-29T13:10:14;93678.88;;;17.99;63.71
30935;BME280;51033;42.648;23.292;2023-05-29T13:12:43;93680.03;;;18.28;64.22
30935;BME280;51033;42.648;23.292;2023-05-29T13:15:10;93682.97;;;18.75;67.08
30935;BME280;51033;42.648;23.292;2023-05-29T13:17:37;93678.19;;;18.95;64.12